Time;durP1;ratioP1;P1;durP2;ratioP2;P2;SDS_P1;SDS_P2;PMS_P1;PMS_P2;Temp;Humidity;BMP_temperature;BMP_pressure;BME280_temperature;BME280_humidity;BME280_pressure;Samples;Min_cycle;Max_cycle;Signal;HPM_P1;HPM_P2
2022/08/17 04:01:46;;;;;;;7.60;3.87;;;13.80;96.30;;;;;;5317460;23;20838;-78
2022/08/17 04:04:12;;;;;;;5.47;4.17;;;13.80;96.30;;;;;;4944826;29;20432;-78
2022/08/17 04:06:39;;;;;;;6.10;3.80;;;13.80;96.30;;;;;;4973533;28;20422;-78
2022/08/17 04:09:04;;;;;;;4.60;3.53;;;13.80;96.30;;;;;;4973686;28;20427;-78
2022/08/17 04:11:31;;;;;;;5.43;4.07;;;13.90;96.30;;;;;;4957503;28;20431;-78
2022/08/17 04:13:56;;;;;;;9.77;5.00;;;13.90;96.30;;;;;;4958067;29;20515;-78
2022/08/17 04:16:24;;;;;;;3.57;3.27;;;13.80;96.30;;;;;;4941325;29;20925;-78
2022/08/17 04:18:50;;;;;;;4.00;3.63;;;13.80;96.30;;;;;;4969867;28;20657;-79
2022/08/17 04:29:02;;;;;;;4.07;3.33;;;14.00;96.30;;;;;;5035037;23;21047;-79
2022/08/17 04:31:27;;;;;;;7.57;3.40;;;14.00;96.30;;;;;;4950787;29;20434;-77
2022/08/17 04:33:53;;;;;;;4.23;3.70;;;14.10;96.30;;;;;;4941928;29;20211;-79
2022/08/17 04:36:18;;;;;;;4.00;3.60;;;14.20;96.30;;;;;;4973491;28;20186;-76
2022/08/17 04:38:45;;;;;;;11.23;3.93;;;14.30;96.30;;;;;;4957440;28;20800;-76
2022/08/17 04:43:57;;;;;;;8.00;3.70;;;14.60;96.30;;;;;;4956284;29;20776;-76
2022/08/17 04:46:34;;;;;;;7.30;3.33;;;15.00;96.30;;;;;;4938571;29;20477;-76
2022/08/17 04:49:03;;;;;;;3.37;3.07;;;15.90;96.30;;;;;;4955206;29;20398;-77
2022/08/17 04:51:38;;;;;;;4.80;2.57;;;16.50;96.30;;;;;;4955701;28;20430;-76
2022/08/17 04:54:07;;;;;;;5.60;3.20;;;16.70;96.30;;;;;;4956051;29;20872;-80
2022/08/17 04:56:33;;;;;;;21.07;3.60;;;17.30;96.30;;;;;;4955340;29;20423;-76
2022/08/17 04:59:05;;;;;;;3.30;3.00;;;17.60;96.30;;;;;;4955087;29;20506;-76
2022/08/17 05:01:34;;;;;;;3.57;3.23;;;17.60;96.30;;;;;;4955657;28;20808;-76
2022/08/17 05:04:03;;;;;;;14.27;3.10;;;17.40;96.30;;;;;;4955494;29;20427;-76
2022/08/17 05:06:29;;;;;;;13.10;3.43;;;17.30;96.30;;;;;;4955298;29;20469;-76
2022/08/17 05:08:56;;;;;;;4.50;2.97;;;17.30;96.30;;;;;;4937657;29;20427;-77
2022/08/17 05:11:24;;;;;;;8.73;4.00;;;17.40;96.30;;;;;;4937980;29;20230;-76
2022/08/17 05:13:50;;;;;;;10.73;3.50;;;17.30;96.30;;;;;;4955418;29;20415;-76
2022/08/17 05:16:17;;;;;;;2.83;2.53;;;17.20;96.30;;;;;;4955290;29;20441;-76
2022/08/17 05:18:42;;;;;;;14.40;2.97;;;17.30;96.30;;;;;;4954627;29;20659;-76
2022/08/17 05:21:08;;;;;;;8.30;2.67;;;17.30;96.30;;;;;;4955124;28;20518;-76
2022/08/17 05:23:34;;;;;;;6.07;2.80;;;17.40;96.30;;;;;;4937991;29;20546;-77
2022/08/17 05:26:00;;;;;;;4.47;3.07;;;17.40;96.30;;;;;;4954831;28;20244;-76
2022/08/17 05:28:26;;;;;;;13.03;3.20;;;17.50;96.30;;;;;;4954476;29;20470;-76
2022/08/17 05:30:52;;;;;;;15.77;3.37;;;17.60;96.30;;;;;;4955007;28;20198;-77
2022/08/17 05:33:24;;;;;;;17.90;3.70;;;17.60;96.30;;;;;;4954993;29;20773;-76
2022/08/17 05:35:52;;;;;;;5.47;3.03;;;17.80;96.30;;;;;;4954937;29;20403;-76
2022/08/17 05:38:19;;;;;;;3.00;2.70;;;18.70;96.30;;;;;;4954088;28;20441;-80
2022/08/17 05:40:45;;;;;;;3.90;3.50;;;20.30;96.30;;;;;;4962322;28;20445;-76
2022/08/17 05:43:22;;;;;;;4.10;2.90;;;21.60;96.30;;;;;;4974115;28;20418;-77
2022/08/17 05:46:05;;;;;;;5.70;2.53;;;22.70;96.30;;;;;;4973960;28;20449;-77
2022/08/17 05:48:40;;;;;;;2.83;2.63;;;22.90;96.30;;;;;;4972606;28;20406;-77
2022/08/17 05:51:30;;;;;;;12.03;2.90;;;23.40;96.30;;;;;;4973959;28;20520;-77
2022/08/17 05:54:18;;;;;;;5.27;2.63;;;24.10;95.00;;;;;;4974065;28;20418;-76
2022/08/17 05:56:49;;;;;;;5.17;2.67;;;24.30;93.70;;;;;;4973810;28;20765;-76
2022/08/17 05:59:24;;;;;;;6.17;2.60;;;25.10;91.90;;;;;;4973158;28;20418;-76
2022/08/17 06:02:01;;;;;;;2.90;2.50;;;24.90;91.50;;;;;;4973985;28;20780;-77
2022/08/17 06:04:34;;;;;;;4.80;2.97;;;25.50;89.50;;;;;;4973614;28;20389;-77
2022/08/17 06:07:30;;;;;;;3.30;2.73;;;26.30;87.20;;;;;;4973812;28;20820;-77
2022/08/17 06:10:01;;;;;;;10.37;2.47;;;26.40;86.90;;;;;;4960835;28;20440;-77
2022/08/17 06:12:53;;;;;;;14.10;3.37;;;26.60;85.80;;;;;;4954355;28;20422;-77
2022/08/17 06:15:40;;;;;;;24.83;3.40;;;26.40;86.60;;;;;;4954392;29;20826;-77
2022/08/17 06:18:10;;;;;;;10.47;3.00;;;26.60;86.60;;;;;;4953748;29;20457;-77
2022/08/17 06:20:50;;;;;;;10.17;4.23;;;27.70;84.00;;;;;;4954179;28;20509;-77
2022/08/17 06:23:28;;;;;;;7.30;3.53;;;28.60;81.50;;;;;;4954227;29;20398;-77
2022/08/17 06:26:02;;;;;;;11.90;3.00;;;28.80;80.80;;;;;;4954105;29;20516;-77
2022/08/17 06:28:36;;;;;;;3.13;2.37;;;28.90;80.50;;;;;;4953573;29;20439;-77
2022/08/17 06:31:10;;;;;;;6.53;2.77;;;28.70;80.10;;;;;;4954136;28;20512;-77
2022/08/17 06:33:38;;;;;;;7.10;2.90;;;28.40;81.40;;;;;;4954257;29;20474;-76
2022/08/17 06:36:29;;;;;;;8.50;2.47;;;28.30;81.20;;;;;;4954152;29;20934;-81
2022/08/17 06:39:32;;;;;;;5.20;2.87;;;28.50;81.90;;;;;;4953708;29;20457;-77
2022/08/17 06:42:20;;;;;;;6.53;2.50;;;29.50;79.20;;;;;;4887977;29;20450;-80
2022/08/17 06:45:06;;;;;;;5.77;2.97;;;29.90;78.30;;;;;;4917791;29;20895;-81
2022/08/17 06:47:43;;;;;;;5.63;2.47;;;29.70;78.20;;;;;;4934907;29;20399;-80
2022/08/17 06:50:26;;;;;;;3.27;2.50;;;29.40;79.40;;;;;;4934111;29;20415;-77
2022/08/17 06:53:19;;;;;;;3.53;2.40;;;29.20;79.70;;;;;;4934831;29;20406;-77
2022/08/17 06:56:07;;;;;;;5.53;2.63;;;30.20;77.40;;;;;;4934718;29;20403;-77
2022/08/17 06:58:34;;;;;;;4.63;2.23;;;31.00;75.80;;;;;;4917054;29;20954;-77
2022/08/17 07:01:23;;;;;;;2.50;2.30;;;31.40;73.90;;;;;;4938417;29;20685;-77
2022/08/17 07:03:55;;;;;;;2.92;2.10;;;32.10;72.80;;;;;;4938483;29;20194;-77
2022/08/17 07:06:25;;;;;;;5.20;2.70;;;32.30;72.80;;;;;;4938502;29;20255;-77
2022/08/17 07:08:57;;;;;;;4.07;2.40;;;32.60;72.20;;;;;;4943915;28;20173;-77
2022/08/17 07:11:49;;;;;;;9.50;2.70;;;32.80;71.80;;;;;;4976738;28;20220;-78
2022/08/17 07:14:42;;;;;;;10.30;2.65;;;33.80;68.90;;;;;;4969904;28;20186;-77
2022/08/17 07:17:17;;;;;;;10.55;2.42;;;33.90;68.90;;;;;;4976844;28;20165;-82
2022/08/17 07:19:44;;;;;;;3.83;2.53;;;34.20;67.70;;;;;;4976303;28;20629;-77
2022/08/17 07:22:42;;;;;;;5.43;2.60;;;34.20;67.90;;;;;;4976592;28;20204;-76
2022/08/17 07:25:13;;;;;;;4.28;2.30;;;31.90;71.40;;;;;;4976453;28;20209;-77
2022/08/17 07:27:49;;;;;;;2.60;2.40;;;32.20;72.50;;;;;;4959100;28;20685;-77
2022/08/17 07:30:18;;;;;;;5.68;2.30;;;31.50;72.30;;;;;;4976372;28;20178;-77
2022/08/17 07:32:47;;;;;;;7.65;2.50;;;32.20;71.70;;;;;;4976469;28;20181;-80
2022/08/17 07:35:15;;;;;;;11.07;2.47;;;32.50;71.40;;;;;;4976514;28;20228;-77
2022/08/17 07:37:54;;;;;;;8.82;2.88;;;33.70;68.70;;;;;;4976481;28;20193;-77
2022/08/17 07:40:23;;;;;;;9.77;2.85;;;33.10;69.00;;;;;;4954607;28;20205;-77
2022/08/17 07:43:15;;;;;;;6.10;2.22;;;33.60;67.40;;;;;;4956947;29;20639;-77
2022/08/17 07:48:50;;;;;;;4.75;2.40;;;32.70;68.10;;;;;;4956774;29;20166;-77
2022/08/17 07:51:19;;;;;;;7.78;2.42;;;33.00;67.70;;;;;;4956777;28;20187;-77
2022/08/17 07:53:45;;;;;;;5.97;2.55;;;32.90;68.00;;;;;;4956832;29;20181;-79
2022/08/17 07:56:31;;;;;;;16.08;2.95;;;33.70;67.80;;;;;;4956557;29;20686;-78
2022/08/17 07:59:21;;;;;;;12.02;2.40;;;34.20;65.10;;;;;;4956174;29;20710;-81
2022/08/17 08:01:59;;;;;;;6.15;2.03;;;34.80;64.90;;;;;;4956486;28;20206;-80
2022/08/17 08:04:36;;;;;;;4.97;3.45;;;35.30;64.20;;;;;;4956533;29;20642;-81
2022/08/17 08:07:15;;;;;;;6.18;1.85;;;34.80;63.10;;;;;;4939428;29;20205;-77
2022/08/17 08:09:42;;;;;;;5.03;2.17;;;33.70;63.90;;;;;;4965632;28;20166;-78
2022/08/17 08:12:25;;;;;;;2.70;2.03;;;33.20;64.30;;;;;;4974643;28;20677;-77
2022/08/17 08:15:12;;;;;;;4.30;2.20;;;32.70;66.60;;;;;;4975833;28;20174;-81
2022/08/17 08:17:48;;;;;;;5.45;2.40;;;32.10;66.90;;;;;;4975553;28;20188;-80
2022/08/17 08:20:14;;;;;;;3.03;1.90;;;32.50;65.60;;;;;;4958073;28;20622;-78
2022/08/17 08:23:07;;;;;;;2.47;2.00;;;33.50;64.40;;;;;;4975606;28;20178;-77
2022/08/17 08:26:14;;;;;;;4.03;2.30;;;32.40;65.70;;;;;;4975413;28;20270;-76
2022/08/17 08:28:45;;;;;;;2.47;2.08;;;32.60;65.40;;;;;;4974875;28;20243;-79
2022/08/17 08:31:35;;;;;;;7.07;2.33;;;33.10;66.10;;;;;;4975419;28;20205;-76
2022/08/17 08:34:25;;;;;;;4.65;2.28;;;33.80;64.30;;;;;;4975385;28;20164;-77
2022/08/17 08:37:02;;;;;;;6.45;2.42;;;35.30;61.40;;;;;;4958099;28;20700;-77
2022/08/17 08:39:46;;;;;;;16.38;2.88;;;35.80;60.60;;;;;;4974675;28;20573;-79
2022/08/17 08:42:23;;;;;;;5.25;2.55;;;34.40;61.70;;;;;;4955895;28;20198;-80
2022/08/17 08:45:00;;;;;;;2.90;2.50;;;34.00;62.80;;;;;;4955846;29;20237;-77
2022/08/17 08:47:40;;;;;;;2.00;1.80;;;33.20;63.70;;;;;;4938644;29;20170;-76
2022/08/17 08:50:44;;;;;;;3.60;2.30;;;33.50;64.00;;;;;;4955253;29;20230;-77
2022/08/17 08:53:13;;;;;;;3.45;1.88;;;34.20;63.70;;;;;;4955805;29;20162;-76
2022/08/17 08:56:09;;;;;;;4.78;2.00;;;35.10;60.10;;;;;;4955616;29;20694;-80
2022/08/17 08:59:00;;;;;;;2.85;1.77;;;35.80;59.40;;;;;;4955219;29;20174;-79
2022/08/17 09:02:02;;;;;;;2.40;1.65;;;35.50;57.70;;;;;;4938407;29;20202;-77
2022/08/17 09:04:55;;;;;;;7.88;2.03;;;36.00;59.60;;;;;;4955465;29;20256;-77
2022/08/17 09:07:57;;;;;;;4.82;1.98;;;35.60;57.00;;;;;;4938422;29;20250;-77
2022/08/17 09:10:33;;;;;;;2.03;1.83;;;34.20;60.80;;;;;;4970487;28;20169;-76
2022/08/17 09:13:14;;;;;;;2.72;1.80;;;34.50;60.80;;;;;;4974697;28;20162;-79
2022/08/17 09:15:57;;;;;;;2.72;1.80;;;35.20;59.80;;;;;;4957292;28;20596;-76
2022/08/17 09:18:32;;;;;;;3.38;1.65;;;35.50;58.80;;;;;;4973991;28;20158;-79
2022/08/17 09:21:10;;;;;;;5.60;1.90;;;34.50;58.90;;;;;;4974519;28;20200;-76
2022/08/17 09:23:41;;;;;;;3.97;1.65;;;33.50;60.10;;;;;;4974326;28;20173;-79
2022/08/17 09:26:15;;;;;;;3.65;1.92;;;33.10;61.10;;;;;;4974559;28;20213;-77
2022/08/17 09:28:47;;;;;;;7.03;2.03;;;32.90;61.50;;;;;;4973811;28;20264;-77
2022/08/17 09:31:34;;;;;;;2.60;1.90;;;31.60;63.10;;;;;;4974333;28;20425;-76
2022/08/17 09:34:04;;;;;;;3.50;2.07;;;32.10;63.40;;;;;;4974237;28;20389;-76
2022/08/17 09:37:00;;;;;;;2.63;2.10;;;33.00;62.00;;;;;;4974626;28;20497;-76
2022/08/17 09:39:37;;;;;;;2.20;1.80;;;34.20;61.40;;;;;;4963218;28;20422;-79
2022/08/17 09:42:21;;;;;;;4.47;2.10;;;34.60;60.60;;;;;;4955862;28;20442;-76
2022/08/17 09:45:08;;;;;;;5.83;2.23;;;34.00;60.10;;;;;;4954832;29;20441;-76
2022/08/17 09:47:45;;;;;;;3.70;1.80;;;33.70;61.30;;;;;;4954848;29;20402;-76
2022/08/17 09:50:20;;;;;;;2.23;1.97;;;33.30;61.40;;;;;;4936979;28;20414;-77
2022/08/17 09:52:49;;;;;;;4.03;1.60;;;33.50;61.50;;;;;;4954745;29;20398;-76
2022/08/17 09:55:15;;;;;;;4.93;2.10;;;34.30;61.20;;;;;;4954561;29;20414;-77
2022/08/17 09:58:06;;;;;;;2.10;1.90;;;35.10;59.80;;;;;;4937470;29;20432;-75
2022/08/17 10:00:36;;;;;;;3.67;2.00;;;34.50;59.70;;;;;;4954619;28;20241;-76
2022/08/17 10:03:27;;;;;;;4.00;1.80;;;35.10;59.70;;;;;;4954839;29;20732;-76
2022/08/17 10:06:07;;;;;;;1.93;1.70;;;35.40;57.40;;;;;;4954437;29;20450;-76
2022/08/17 10:08:51;;;;;;;5.47;2.08;;;34.10;59.90;;;;;;4954269;28;20425;-76
2022/08/17 10:11:21;;;;;;;13.97;2.57;;;34.60;58.70;;;;;;4973499;28;20186;-76
2022/08/17 10:14:01;;;;;;;2.33;1.90;;;33.90;59.20;;;;;;4973741;28;20212;-76
2022/08/17 10:16:39;;;;;;;5.40;1.90;;;32.60;60.80;;;;;;4974343;28;20417;-76
2022/08/17 10:19:14;;;;;;;3.33;1.53;;;32.60;61.60;;;;;;4973413;28;20393;-76
2022/08/17 10:27:11;;;;;;;10.02;2.00;;;36.40;59.10;;;;;;4973791;28;20177;-77
2022/08/17 10:29:46;;;;;;;4.47;2.20;;;36.60;57.00;;;;;;4972933;28;20189;-77
2022/08/17 10:32:23;;;;;;;3.15;1.80;;;37.00;56.80;;;;;;4955967;28;20228;-78
2022/08/17 10:35:08;;;;;;;7.60;2.22;;;35.80;56.30;;;;;;4972765;28;20185;-78
2022/08/17 10:37:55;;;;;;;2.92;1.92;;;33.40;58.90;;;;;;4973284;28;20173;-78
2022/08/17 10:40:42;;;;;;;4.95;1.90;;;33.50;59.30;;;;;;4977500;28;20264;-77
2022/08/17 10:43:38;;;;;;;13.80;1.90;;;32.80;60.40;;;;;;4992728;28;20211;-77
2022/08/17 10:46:12;;;;;;;5.07;2.50;;;32.00;62.10;;;;;;4992751;28;20220;-77
2022/08/17 10:48:39;;;;;;;2.60;2.03;;;31.90;62.00;;;;;;4992091;28;20211;-77
2022/08/17 10:51:27;;;;;;;4.63;2.30;;;31.50;63.30;;;;;;4992446;28;20520;-77
2022/08/17 10:53:54;;;;;;;3.57;1.93;;;32.10;65.50;;;;;;4992631;28;20498;-78
2022/08/17 10:56:22;;;;;;;5.70;1.80;;;32.30;63.30;;;;;;4975091;28;20474;-77
2022/08/17 10:58:57;;;;;;;4.67;1.90;;;32.30;63.50;;;;;;4991989;28;20912;-77
2022/08/17 11:01:31;;;;;;;2.87;2.20;;;32.20;63.30;;;;;;4992436;28;20439;-79
2022/08/17 11:04:06;;;;;;;2.07;1.73;;;32.40;63.80;;;;;;4992525;28;20908;-77
2022/08/17 11:06:50;;;;;;;6.53;2.07;;;32.60;62.60;;;;;;4974974;28;20987;-77
2022/08/17 11:09:28;;;;;;;2.27;2.07;;;31.60;61.90;;;;;;4985597;28;20405;-77
2022/08/17 11:11:56;;;;;;;2.13;1.93;;;31.40;63.90;;;;;;4972949;28;20491;-77
2022/08/17 11:14:41;;;;;;;3.57;1.80;;;31.10;63.20;;;;;;4973048;28;20409;-77
2022/08/17 11:17:25;;;;;;;2.63;1.90;;;31.00;63.80;;;;;;4972945;28;20463;-77
2022/08/17 11:19:57;;;;;;;3.60;2.20;;;31.10;63.70;;;;;;4972471;28;20407;-77
2022/08/17 11:22:56;;;;;;;4.40;2.23;;;31.50;64.80;;;;;;4972849;28;20937;-77
2022/08/17 11:25:39;;;;;;;5.53;1.70;;;33.30;64.50;;;;;;4955385;28;20508;-79
2022/08/17 11:28:33;;;;;;;2.80;2.13;;;33.40;61.40;;;;;;4955087;28;20421;-77
2022/08/17 11:31:05;;;;;;;2.20;2.00;;;34.10;62.00;;;;;;4972941;28;20431;-78
2022/08/17 11:33:33;;;;;;;3.60;2.10;;;34.90;60.80;;;;;;4972796;28;20413;-77
2022/08/17 11:36:13;;;;;;;4.23;1.80;;;35.20;58.20;;;;;;4972743;28;20503;-77
2022/08/17 11:38:59;;;;;;;5.53;2.10;;;35.20;59.70;;;;;;4954930;28;20672;-78
2022/08/17 11:41:44;;;;;;;2.38;2.03;;;35.60;57.20;;;;;;4985679;28;20255;-77
2022/08/17 11:44:19;;;;;;;1.63;1.52;;;35.60;56.30;;;;;;4992214;28;20183;-77
2022/08/17 11:52:35;;;;;;;2.97;1.80;;;34.10;58.50;;;;;;4995702;28;20695;-77
2022/08/17 11:55:02;;;;;;;5.47;1.73;;;33.60;59.80;;;;;;4995574;28;20197;-78
2022/08/17 11:57:30;;;;;;;3.90;2.20;;;32.90;60.30;;;;;;4995460;28;20177;-77
2022/08/17 11:59:56;;;;;;;2.80;2.13;;;32.50;61.00;;;;;;4995111;28;20499;-77
2022/08/17 12:02:31;;;;;;;4.57;2.07;;;32.00;61.90;;;;;;4997319;28;20466;-78
2022/08/17 12:05:11;;;;;;;4.40;2.00;;;31.50;62.90;;;;;;4982800;28;20295;-78
2022/08/17 12:08:02;;;;;;;4.10;2.20;;;31.00;62.70;;;;;;5001442;28;20396;-78
2022/08/17 12:10:30;;;;;;;2.40;2.20;;;30.90;63.40;;;;;;4971711;28;20448;-77
2022/08/17 12:12:58;;;;;;;3.43;1.90;;;31.10;62.90;;;;;;4975857;28;20413;-77
2022/08/17 12:15:30;;;;;;;3.60;2.00;;;31.10;63.70;;;;;;4975861;28;20472;-79
2022/08/17 12:17:56;;;;;;;6.40;1.80;;;31.10;63.30;;;;;;4978712;28;20508;-78
2022/08/17 12:20:32;;;;;;;2.63;2.10;;;31.10;62.60;;;;;;4980838;28;20932;-78
2022/08/17 12:23:24;;;;;;;3.93;2.20;;;31.00;63.90;;;;;;4980294;28;20503;-78
2022/08/17 12:26:03;;;;;;;3.13;2.20;;;31.00;64.90;;;;;;4980856;28;20503;-78
2022/08/17 12:28:32;;;;;;;4.07;1.83;;;31.90;62.80;;;;;;4980252;28;20416;-78
2022/08/17 12:31:16;;;;;;;3.40;2.23;;;32.70;61.10;;;;;;4980759;28;20437;-78
2022/08/17 12:33:44;;;;;;;2.60;1.97;;;32.70;60.80;;;;;;4963454;28;20439;-79
2022/08/17 12:36:13;;;;;;;3.70;2.20;;;32.50;59.20;;;;;;4980791;28;20409;-78
2022/08/17 12:38:40;;;;;;;3.87;2.00;;;33.00;59.80;;;;;;4979773;28;20416;-78
2022/08/17 12:41:27;;;;;;;9.53;2.47;;;32.80;59.50;;;;;;4990388;28;20452;-76
2022/08/17 12:44:00;;;;;;;1.93;1.73;;;32.60;60.10;;;;;;4994733;28;20487;-76
2022/08/17 12:46:27;;;;;;;2.23;1.97;;;32.50;61.40;;;;;;4994680;28;20466;-75
2022/08/17 12:48:53;;;;;;;2.50;1.90;;;32.60;60.10;;;;;;4994032;28;20980;-76
2022/08/17 12:51:19;;;;;;;5.27;2.00;;;31.90;60.70;;;;;;4994477;28;20511;-79
2022/08/17 12:53:53;;;;;;;2.70;1.43;;;31.70;61.00;;;;;;4994529;28;20177;-76
2022/08/17 12:56:19;;;;;;;5.63;1.93;;;31.40;61.80;;;;;;4994449;28;20237;-76
2022/08/17 12:58:52;;;;;;;5.80;2.30;;;31.20;62.00;;;;;;4993406;28;20444;-76
2022/08/17 13:01:18;;;;;;;4.47;1.67;;;31.00;62.80;;;;;;4994350;28;20450;-76
2022/08/17 13:03:51;;;;;;;6.80;2.40;;;30.90;63.10;;;;;;4994181;28;20911;-76
2022/08/17 13:06:32;;;;;;;5.10;1.90;;;30.60;63.40;;;;;;4976711;28;20201;-76
2022/08/17 13:09:12;;;;;;;5.33;2.07;;;30.30;64.20;;;;;;4989721;28;20406;-79
2022/08/17 13:11:50;;;;;;;5.73;2.10;;;30.70;63.10;;;;;;4957320;28;20440;-77
2022/08/17 13:14:17;;;;;;;2.87;1.87;;;31.00;62.90;;;;;;4974686;28;20413;-77
2022/08/17 13:16:52;;;;;;;3.87;2.00;;;31.70;61.70;;;;;;4974704;28;20417;-76
2022/08/17 13:19:20;;;;;;;4.33;1.97;;;31.90;60.80;;;;;;4974086;28;20436;-76
2022/08/17 13:21:49;;;;;;;3.40;2.10;;;31.60;61.20;;;;;;4957144;28;20449;-79
2022/08/17 13:24:24;;;;;;;4.30;1.73;;;31.60;61.20;;;;;;4974749;28;20891;-76
2022/08/17 13:27:14;;;;;;;8.50;2.40;;;31.80;61.70;;;;;;4974510;28;20448;-76
2022/08/17 13:29:51;;;;;;;2.90;1.97;;;32.40;60.20;;;;;;4956613;28;20936;-76
2022/08/17 13:32:21;;;;;;;2.60;1.77;;;33.20;59.30;;;;;;4957064;28;20456;-76
2022/08/17 13:34:56;;;;;;;4.53;2.13;;;33.20;59.50;;;;;;4974240;28;20452;-76
2022/08/17 13:37:28;;;;;;;4.13;1.90;;;33.50;59.70;;;;;;4956971;28;20842;-76
2022/08/17 13:40:09;;;;;;;4.67;2.20;;;34.30;59.20;;;;;;4974525;28;20509;-76
2022/08/17 13:42:46;;;;;;;2.20;2.00;;;34.60;57.70;;;;;;4993781;28;20428;-76
2022/08/17 13:45:30;;;;;;;5.85;1.60;;;34.80;57.70;;;;;;4993446;28;20201;-76
2022/08/17 13:48:07;;;;;;;4.80;1.90;;;34.90;56.20;;;;;;4992747;28;20546;-76
2022/08/17 13:50:39;;;;;;;3.03;1.67;;;34.30;58.10;;;;;;4993440;28;20275;-78
2022/08/17 13:53:18;;;;;;;7.10;2.20;;;34.30;57.00;;;;;;4993461;28;20161;-76
2022/08/17 13:55:57;;;;;;;3.28;1.88;;;34.10;57.20;;;;;;4993239;28;20176;-76
2022/08/17 13:58:38;;;;;;;2.33;1.90;;;33.30;58.60;;;;;;4992846;28;20220;-76
2022/08/17 14:01:37;;;;;;;4.20;1.43;;;32.50;59.20;;;;;;4993216;28;20531;-76
2022/08/17 14:04:09;;;;;;;2.63;2.13;;;32.00;60.10;;;;;;4975631;28;20936;-76
2022/08/17 14:07:07;;;;;;;4.63;2.10;;;32.20;60.20;;;;;;4993146;28;20527;-75
2022/08/17 14:09:39;;;;;;;3.00;1.87;;;32.50;59.90;;;;;;4963651;28;20480;-76
2022/08/17 14:12:10;;;;;;;4.50;1.70;;;32.40;60.30;;;;;;4956278;28;20441;-76
2022/08/17 14:14:36;;;;;;;6.27;2.30;;;32.50;58.90;;;;;;4973724;28;20398;-76
2022/08/17 14:17:02;;;;;;;5.27;1.80;;;32.50;59.20;;;;;;4973574;28;20893;-79
2022/08/17 14:19:27;;;;;;;4.43;2.40;;;32.60;59.30;;;;;;4955637;28;20898;-77
2022/08/17 14:21:57;;;;;;;4.30;1.60;;;32.60;58.20;;;;;;4973540;28;20437;-77
2022/08/17 14:24:31;;;;;;;2.23;2.00;;;32.70;58.70;;;;;;4973524;28;20243;-79
2022/08/17 14:26:58;;;;;;;6.57;2.30;;;32.60;59.30;;;;;;4973455;28;20424;-78
2022/08/17 14:29:26;;;;;;;5.00;2.10;;;32.50;58.20;;;;;;4973096;28;20451;-77
2022/08/17 14:31:53;;;;;;;2.63;2.27;;;32.00;59.90;;;;;;4975476;28;20421;-78
2022/08/17 14:34:18;;;;;;;3.87;2.27;;;32.30;59.50;;;;;;4983426;28;20401;-78
2022/08/17 14:36:45;;;;;;;4.20;2.30;;;32.40;60.20;;;;;;4979150;28;20934;-78
2022/08/17 14:39:12;;;;;;;4.43;2.03;;;32.70;58.90;;;;;;4960954;28;20185;-78
2022/08/17 14:41:37;;;;;;;4.60;1.70;;;33.20;58.30;;;;;;4992934;28;20440;-78
2022/08/17 14:44:04;;;;;;;2.83;2.40;;;33.70;57.40;;;;;;4998167;28;20475;-78
2022/08/17 14:46:30;;;;;;;2.80;2.13;;;33.60;58.10;;;;;;4998722;28;20255;-77
2022/08/17 14:48:56;;;;;;;2.97;2.27;;;32.90;59.00;;;;;;4981268;28;20448;-79
2022/08/17 14:51:22;;;;;;;2.87;2.20;;;32.50;59.20;;;;;;5000222;28;20428;-78
2022/08/17 14:53:48;;;;;;;2.43;1.80;;;32.50;60.00;;;;;;4997985;28;20181;-78
2022/08/17 14:56:15;;;;;;;2.93;2.33;;;32.70;59.00;;;;;;4998037;28;20412;-78
2022/08/17 14:58:41;;;;;;;3.43;1.80;;;32.70;59.60;;;;;;4996852;28;20423;-79
2022/08/17 15:01:11;;;;;;;6.33;1.60;;;33.00;59.40;;;;;;4997241;28;20767;-78
2022/08/17 15:03:37;;;;;;;4.20;2.20;;;32.70;58.40;;;;;;4980059;28;20187;-78
2022/08/17 15:06:03;;;;;;;3.50;2.20;;;32.70;61.20;;;;;;4997731;28;20543;-78
2022/08/17 15:08:29;;;;;;;3.83;2.00;;;32.50;59.40;;;;;;4997055;28;20660;-78
2022/08/17 15:10:54;;;;;;;6.50;2.30;;;32.60;58.80;;;;;;4977961;28;20917;-78
2022/08/17 15:13:23;;;;;;;2.90;1.77;;;32.60;59.20;;;;;;4978213;28;20463;-78
2022/08/17 15:15:49;;;;;;;3.03;2.17;;;32.70;59.20;;;;;;4961053;28;20178;-78
2022/08/17 15:18:15;;;;;;;9.17;2.40;;;32.70;58.70;;;;;;4977292;28;20508;-78
2022/08/17 15:20:43;;;;;;;3.20;2.10;;;32.80;58.80;;;;;;4978458;28;20928;-78
2022/08/17 15:23:12;;;;;;;1.97;1.77;;;33.00;58.80;;;;;;4961763;28;20447;-79
2022/08/17 15:25:37;;;;;;;3.70;1.97;;;33.20;59.10;;;;;;4979069;28;20480;-78
2022/08/17 15:28:03;;;;;;;2.20;1.60;;;33.00;58.10;;;;;;4977832;28;20456;-76
2022/08/17 15:30:29;;;;;;;2.90;1.83;;;32.70;59.60;;;;;;4976510;28;20182;-79
2022/08/17 15:32:57;;;;;;;4.63;1.97;;;32.80;58.80;;;;;;4976478;28;20257;-77
2022/08/17 15:35:27;;;;;;;5.37;1.90;;;33.10;58.50;;;;;;4976525;28;20412;-76
2022/08/17 15:37:52;;;;;;;4.30;2.00;;;33.10;57.50;;;;;;4975897;28;20444;-82
2022/08/17 15:40:18;;;;;;;5.07;2.57;;;32.80;57.70;;;;;;4980580;28;20467;-77
2022/08/17 15:42:43;;;;;;;4.17;1.80;;;33.00;58.80;;;;;;4995793;28;20232;-76
2022/08/17 15:45:12;;;;;;;5.13;2.27;;;32.90;59.00;;;;;;4997192;28;20197;-78
2022/08/17 15:47:38;;;;;;;1.93;1.80;;;32.90;58.70;;;;;;5000844;28;20228;-78
2022/08/17 15:50:06;;;;;;;3.07;1.93;;;32.60;58.60;;;;;;5000828;28;20941;-79
2022/08/17 15:52:39;;;;;;;2.63;1.93;;;32.40;58.80;;;;;;4999943;28;20526;-78
2022/08/17 15:55:09;;;;;;;3.10;2.00;;;32.70;58.90;;;;;;4983679;28;20503;-78
2022/08/17 15:57:34;;;;;;;2.90;2.10;;;32.30;59.40;;;;;;4982256;28;20470;-78
2022/08/17 16:00:01;;;;;;;3.67;2.20;;;32.60;60.60;;;;;;4999477;28;20881;-78
2022/08/17 16:02:30;;;;;;;9.23;2.03;;;32.80;60.60;;;;;;5000642;28;20224;-78
2022/08/17 16:05:03;;;;;;;2.13;1.80;;;32.80;58.50;;;;;;4983543;28;20466;-79
2022/08/17 16:07:30;;;;;;;3.73;2.10;;;32.50;58.70;;;;;;5000704;28;20400;-79
2022/08/17 16:09:55;;;;;;;2.20;2.00;;;32.50;58.60;;;;;;4970880;28;20794;-78
2022/08/17 16:12:20;;;;;;;4.07;2.00;;;32.40;59.60;;;;;;4980701;28;20501;-79
2022/08/17 16:14:48;;;;;;;4.37;1.90;;;32.10;59.40;;;;;;4963777;28;20232;-78
2022/08/17 16:17:14;;;;;;;3.93;2.30;;;32.10;59.40;;;;;;4981588;28;20646;-79
2022/08/17 16:19:43;;;;;;;2.70;2.00;;;31.60;60.20;;;;;;4963965;28;20521;-79
2022/08/17 16:22:10;;;;;;;3.00;1.90;;;31.60;61.20;;;;;;4978319;28;20428;-79
2022/08/17 16:24:39;;;;;;;3.17;2.30;;;31.50;63.80;;;;;;4977868;28;20429;-78
2022/08/17 16:27:06;;;;;;;2.63;1.90;;;31.30;62.50;;;;;;4978315;28;20794;-78
2022/08/17 16:29:33;;;;;;;2.93;1.87;;;31.10;61.80;;;;;;4977555;28;20421;-78
2022/08/17 16:32:07;;;;;;;3.57;2.20;;;30.70;62.00;;;;;;4977605;28;20464;-79
2022/08/17 16:34:33;;;;;;;5.90;2.37;;;30.70;63.30;;;;;;4978647;28;20461;-79
2022/08/17 16:36:58;;;;;;;4.27;1.97;;;30.60;65.40;;;;;;4978288;28;20789;-79
2022/08/17 16:39:25;;;;;;;3.93;2.20;;;30.50;67.20;;;;;;4977544;28;20244;-78
2022/08/17 16:41:51;;;;;;;5.13;1.97;;;30.40;67.80;;;;;;4994268;28;20256;-78
2022/08/17 16:44:19;;;;;;;3.70;1.60;;;30.30;65.80;;;;;;4979915;28;20428;-79
2022/08/17 16:46:46;;;;;;;2.83;2.10;;;30.20;66.70;;;;;;4996648;28;20626;-78
2022/08/17 16:49:13;;;;;;;4.43;2.00;;;30.10;67.20;;;;;;4996223;28;20423;-78
2022/08/17 16:51:38;;;;;;;4.60;2.00;;;29.90;64.60;;;;;;4997215;28;20429;-78
2022/08/17 16:54:05;;;;;;;2.60;1.93;;;29.90;64.50;;;;;;4997822;28;20415;-79
2022/08/17 16:56:35;;;;;;;10.70;2.43;;;29.80;67.60;;;;;;4996948;28;20212;-79
2022/08/17 16:59:08;;;;;;;2.23;1.70;;;29.70;69.40;;;;;;4996456;28;20416;-79
2022/08/17 17:01:37;;;;;;;5.97;2.40;;;29.60;70.20;;;;;;4997267;28;20515;-79
2022/08/17 17:04:05;;;;;;;6.40;2.20;;;29.40;69.20;;;;;;4996841;28;20455;-79
2022/08/17 17:07:08;;;;;;;3.73;2.17;;;29.20;69.30;;;;;;4979154;28;20975;-78
2022/08/17 17:09:36;;;;;;;5.43;2.23;;;28.90;72.40;;;;;;4921238;28;20981;-78
2022/08/17 17:12:07;;;;;;;2.67;2.00;;;28.50;72.80;;;;;;4977050;28;20429;-78
2022/08/17 17:14:39;;;;;;;8.00;2.40;;;28.20;74.10;;;;;;4977518;28;20409;-79
2022/08/17 17:17:32;;;;;;;3.07;2.10;;;27.90;74.30;;;;;;4977637;28;20416;-78
2022/08/17 17:20:18;;;;;;;4.27;2.03;;;27.60;74.60;;;;;;4972977;28;20884;-78
2022/08/17 17:23:05;;;;;;;9.07;3.30;;;27.30;76.60;;;;;;4977446;28;20504;-78
2022/08/17 17:25:51;;;;;;;5.00;2.60;;;27.00;77.70;;;;;;4959714;28;20469;-78
2022/08/17 17:28:28;;;;;;;5.87;2.23;;;26.80;78.30;;;;;;4976198;28;20432;-78
2022/08/17 17:31:02;;;;;;;7.13;2.00;;;26.70;78.70;;;;;;4976842;28;20908;-78
2022/08/17 17:34:02;;;;;;;3.17;2.33;;;26.50;79.20;;;;;;4977418;28;20413;-78
2022/08/17 17:36:49;;;;;;;6.53;2.50;;;26.30;80.00;;;;;;4963546;28;20512;-78
2022/08/17 17:39:30;;;;;;;3.43;1.93;;;26.20;79.80;;;;;;4976295;28;20413;-78
2022/08/17 17:42:07;;;;;;;4.93;2.30;;;26.00;80.30;;;;;;4994098;28;20491;-78
2022/08/17 17:44:37;;;;;;;5.40;2.33;;;25.90;79.70;;;;;;4997041;28;20766;-78
2022/08/17 17:47:04;;;;;;;4.83;2.50;;;25.70;79.50;;;;;;4996237;28;20428;-78
2022/08/17 17:49:34;;;;;;;3.87;2.27;;;25.60;80.40;;;;;;4996110;28;20421;-78